Time;durP1;ratioP1;P1;durP2;ratioP2;P2;SDS_P1;SDS_P2;PMS_P1;PMS_P2;Temp;Humidity;BMP_temperature;BMP_pressure;BME280_temperature;BME280_humidity;BME280_pressure;Samples;Min_cycle;Max_cycle;Signal;HPM_P1;HPM_P2
2023/12/08 00:01:35;;;;;;;;;;;;;;;1.56;85.11;101310.06;15708701;28;20066;-45
2023/12/08 00:09:09;;;;;;;0.35;0.35;;;;;;;1.24;85.95;101313.75;15727156;28;19956;-52
2023/12/08 00:16:44;;;;;;;0.10;0.10;;;;;;;1.66;84.24;101306.44;15717107;28;20144;-52
2023/12/08 00:24:17;;;;;;;0.52;0.52;;;;;;;1.00;86.50;101288.50;15699603;28;20090;-50
2023/12/08 00:31:52;;;;;;;0.47;0.45;;;;;;;1.39;85.15;101296.53;15725896;28;20045;-46
2023/12/08 00:39:25;;;;;;;1.17;0.95;;;;;;;1.23;85.14;101291.78;15725621;28;20128;-44
2023/12/08 00:47:00;;;;;;;2.38;1.90;;;;;;;1.34;84.42;101284.69;15706464;28;20048;-49
2023/12/08 00:54:34;;;;;;;2.05;1.95;;;;;;;1.41;85.09;101270.78;15724607;28;20041;-45
2023/12/08 01:02:10;;;;;;;0.88;0.73;;;;;;;1.32;85.14;101268.97;15716972;28;20438;-47
2023/12/08 01:09:43;;;;;;;0.10;0.10;;;;;;;1.10;85.62;101274.47;15734252;28;20041;-47
2023/12/08 01:17:19;;;;;;;0.82;0.45;;;;;;;1.64;84.49;101263.41;15708658;28;20044;-52
2023/12/08 01:24:52;;;;;;;0.60;0.60;;;;;;;1.15;85.57;101259.88;15717230;28;20139;-46
2023/12/08 01:32:26;;;;;;;0.10;0.10;;;;;;;1.55;83.99;101255.47;15735379;28;20099;-50
2023/12/08 01:39:59;;;;;;;0.17;0.17;;;;;;;1.47;84.49;101224.44;15714778;28;20047;-50
2023/12/08 01:47:34;;;;;;;;;;;;;;;1.13;85.48;101224.81;15715812;28;20138;-51
2023/12/08 01:55:08;;;;;;;0.00;0.00;;;;;;;1.07;86.77;101221.88;15732642;28;20325;-48
2023/12/08 02:02:44;;;;;;;1.30;1.25;;;;;;;1.15;85.61;101214.09;15737048;28;20093;-47
2023/12/08 02:10:18;;;;;;;0.30;0.30;;;;;;;0.78;87.56;101193.56;15739892;22;20367;-46
2023/12/08 02:17:56;;;;;;;0.10;0.10;;;;;;;0.83;87.27;101204.56;15665483;28;20132;-49
2023/12/08 02:25:31;;;;;;;0.22;0.22;;;;;;;1.12;86.82;101187.94;15674787;28;20599;-46
2023/12/08 02:33:09;;;;;;;1.08;0.98;;;;;;;1.16;86.87;101190.16;15674540;28;20053;-50
2023/12/08 02:40:43;;;;;;;0.28;0.28;;;;;;;1.13;86.84;101185.16;15671749;28;20288;-47
2023/12/08 02:48:17;;;;;;;1.17;1.10;;;;;;;1.12;87.04;101174.72;15664679;28;20049;-48
2023/12/08 02:55:51;;;;;;;0.00;0.00;;;;;;;1.17;86.88;101161.94;15671107;28;20036;-51
2023/12/08 03:03:26;;;;;;;2.08;0.50;;;;;;;1.22;87.29;101155.25;15664730;28;20068;-51
2023/12/08 03:11:02;;;;;;;9.40;1.50;;;;;;;1.17;87.00;101154.00;15674586;28;20057;-47
2023/12/08 03:18:35;;;;;;;0.10;0.10;;;;;;;1.22;nan;101141.19;15666222;28;20041;-49
2023/12/08 03:26:12;;;;;;;0.00;0.00;;;;;;;1.01;87.69;101141.31;15673921;28;20184;-46
2023/12/08 03:33:50;;;;;;;0.10;0.10;;;;;;;1.17;87.11;101130.22;15674203;28;20045;-49
2023/12/08 03:41:27;;;;;;;0.15;0.15;;;;;;;1.35;86.64;101123.22;15675598;28;20052;-48
2023/12/08 03:49:00;;;;;;;2.03;1.85;;;;;;;1.18;86.58;101108.06;15665032;28;20044;-48
2023/12/08 03:56:38;;;;;;;0.22;0.17;;;;;;;1.34;85.60;101112.78;15673119;28;20071;-49
2023/12/08 04:04:13;;;;;;;1.90;1.15;;;;;;;1.11;86.97;101112.25;15666541;28;20048;-47
2023/12/08 04:11:50;;;;;;;5.68;3.05;;;;;;;1.38;85.34;101088.56;15634106;28;20432;-48
2023/12/08 04:19:25;;;;;;;0.73;0.50;;;;;;;1.06;86.59;101070.38;15663372;28;20071;-51
2023/12/08 04:27:00;;;;;;;3.88;2.88;;;;;;;0.84;86.68;101042.44;15661670;28;20098;-50
2023/12/08 04:34:39;;;;;;;0.77;0.77;;;;;;;0.82;87.31;101022.41;15676605;28;20045;-49
2023/12/08 04:42:24;;;;;;;0.10;0.10;;;;;;;0.95;85.97;101021.13;15666645;28;20529;-48
2023/12/08 04:50:03;;;;;;;2.10;0.85;;;;;;;1.25;85.10;101019.28;15681725;28;20422;-49
2023/12/08 04:57:39;;;;;;;1.83;1.65;;;;;;;1.14;85.88;101037.94;15681129;28;20037;-51
2023/12/08 05:05:12;;;;;;;5.78;2.28;;;;;;;1.10;85.07;101045.31;15665592;28;20067;-46
2023/12/08 05:12:47;;;;;;;;;;;;;;;0.99;85.73;101032.28;15680952;28;20037;-50
2023/12/08 05:20:23;;;;;;;0.43;0.43;;;;;;;0.87;85.43;101049.25;15672070;28;19924;-48
2023/12/08 05:27:59;;;;;;;0.38;0.38;;;;;;;1.04;85.96;101047.72;15678371;28;20077;-49
2023/12/08 05:35:34;;;;;;;1.02;0.95;;;;;;;0.95;85.83;101044.94;15676128;28;20040;-48
2023/12/08 05:43:08;;;;;;;;;;;;;;;1.28;84.07;101046.28;15674178;28;20495;-50
2023/12/08 05:50:46;;;;;;;0.68;0.68;;;;;;;0.80;85.51;101043.69;15661910;28;19931;-49
2023/12/08 05:58:25;;;;;;;0.60;0.60;;;;;;;0.98;85.58;101039.38;15670337;28;20056;-48
2023/12/08 06:05:59;;;;;;;1.35;1.17;;;;;;;1.10;84.99;101034.75;15676690;28;20507;-51
2023/12/08 06:13:34;;;;;;;16.33;1.95;;;;;;;0.99;84.46;101021.69;15675900;28;20470;-50
2023/12/08 06:21:08;;;;;;;1.23;1.13;;;;;;;0.86;85.27;101027.25;15673561;28;20051;-46
2023/12/08 06:28:43;;;;;;;0.20;0.20;;;;;;;0.82;85.59;101011.84;15674529;28;20080;-49
2023/12/08 06:36:16;;;;;;;2.42;2.25;;;;;;;0.85;85.50;101001.00;15674396;28;20041;-51
2023/12/08 06:43:51;;;;;;;;;;;;;;;0.64;85.95;100998.47;15674027;28;20055;-48
2023/12/08 06:51:24;;;;;;;0.73;0.73;;;;;;;0.84;84.79;100997.53;15672965;28;19921;-46
2023/12/08 06:59:00;;;;;;;0.20;0.20;;;;;;;0.56;85.46;100977.22;15664223;28;20045;-47
2023/12/08 07:06:33;;;;;;;0.38;0.38;;;;;;;0.73;85.42;101000.28;15655755;28;20212;-48
2023/12/08 07:14:08;;;;;;;2.13;1.17;;;;;;;0.61;85.73;100978.47;15672223;28;20083;-47
2023/12/08 07:21:42;;;;;;;0.73;0.73;;;;;;;0.69;84.90;100961.91;15671802;28;20049;-50
2023/12/08 07:29:17;;;;;;;0.08;0.08;;;;;;;0.66;84.98;100967.50;15669919;28;20404;-48
2023/12/08 07:36:52;;;;;;;0.28;0.28;;;;;;;0.41;86.13;100966.25;15661745;28;20413;-45
2023/12/08 07:44:28;;;;;;;1.10;0.57;;;;;;;0.56;85.11;100969.28;15670434;28;20253;-48
2023/12/08 07:52:01;;;;;;;1.10;0.55;;;;;;;0.44;85.40;100955.41;15669247;28;20099;-47
2023/12/08 07:59:36;;;;;;;0.10;0.10;;;;;;;0.46;85.24;100951.63;15663242;28;20048;-48
2023/12/08 08:07:09;;;;;;;4.88;2.60;;;;;;;0.62;84.49;100950.25;15675798;28;20047;-53
2023/12/08 08:14:44;;;;;;;;;;;;;;;0.79;83.28;100961.91;15740894;22;20113;-48
2023/12/08 08:22:17;;;;;;;0.30;0.30;;;;;;;0.97;81.83;100952.28;15736223;28;19920;-48
2023/12/08 08:29:52;;;;;;;0.10;0.10;;;;;;;0.86;81.98;100958.56;15755038;28;20097;-49
2023/12/08 08:37:25;;;;;;;1.08;0.80;;;;;;;0.87;81.44;100954.09;15754890;28;20036;-48
2023/12/08 08:45:00;;;;;;;0.20;0.20;;;;;;;0.87;80.82;100940.91;15719082;28;20131;-49
2023/12/08 08:52:34;;;;;;;0.47;0.47;;;;;;;0.82;80.92;100933.41;15752760;28;20138;-48
2023/12/08 09:00:12;;;;;;;0.20;0.20;;;;;;;0.79;80.78;100946.88;15734418;28;20133;-47
2023/12/08 09:07:47;;;;;;;0.20;0.20;;;;;;;0.87;80.19;100954.94;15752148;28;20032;-48
2023/12/08 09:15:23;;;;;;;0.82;0.70;;;;;;;1.05;79.25;100944.47;15729112;28;20039;-50
2023/12/08 09:22:56;;;;;;;0.22;0.22;;;;;;;1.22;78.62;100927.03;15742785;28;20079;-48
2023/12/08 09:30:31;;;;;;;1.33;1.10;;;;;;;1.21;79.22;100918.28;15707587;28;20462;-49
2023/12/08 09:38:06;;;;;;;0.15;0.15;;;;;;;1.36;78.01;100920.44;15735668;28;20055;-48
2023/12/08 09:45:43;;;;;;;0.00;0.00;;;;;;;1.03;78.07;100917.38;15743017;28;20044;-50
2023/12/08 09:53:18;;;;;;;0.03;0.03;;;;;;;1.08;78.60;100891.31;15723336;28;20045;-48
2023/12/08 10:00:53;;;;;;;0.55;0.55;;;;;;;1.11;79.15;100892.81;15723568;28;20032;-49
2023/12/08 10:08:30;;;;;;;0.00;0.00;;;;;;;1.06;78.89;100871.28;15740219;28;20037;-49
2023/12/08 10:16:07;;;;;;;1.10;1.10;;;;;;;1.06;79.29;100879.22;15740272;28;20040;-48
2023/12/08 10:23:40;;;;;;;0.15;0.15;;;;;;;1.13;79.16;100861.81;15741402;28;20049;-49
2023/12/08 10:31:15;;;;;;;0.20;0.20;;;;;;;0.96;79.08;100858.94;15741339;28;20040;-53
2023/12/08 10:38:50;;;;;;;0.80;0.80;;;;;;;1.09;78.86;100860.44;15740018;28;20071;-48
2023/12/08 10:46:27;;;;;;;0.55;0.55;;;;;;;1.23;78.48;100860.78;15732730;28;20045;-51
2023/12/08 10:54:01;;;;;;;0.40;0.28;;;;;;;1.17;79.27;100840.22;15720916;28;20037;-48
2023/12/08 11:01:38;;;;;;;0.25;0.25;;;;;;;1.19;77.58;100840.06;15720660;28;20106;-48
2023/12/08 11:09:15;;;;;;;0.10;0.10;;;;;;;0.83;78.78;100836.47;15738849;28;20082;-46
2023/12/08 11:16:57;;;;;;;0.55;0.55;;;;;;;0.98;78.60;100827.09;15703358;28;20154;-48
2023/12/08 11:24:32;;;;;;;0.60;0.60;;;;;;;0.96;78.17;100829.88;15719874;28;20048;-48
2023/12/08 11:32:13;;;;;;;0.35;0.25;;;;;;;0.86;78.80;100818.50;15703707;28;20044;-49
2023/12/08 11:39:46;;;;;;;0.10;0.10;;;;;;;0.79;78.52;100820.06;15718617;28;20106;-49
2023/12/08 11:47:22;;;;;;;4.40;1.55;;;;;;;0.81;78.77;100807.56;15719179;28;20040;-50
2023/12/08 11:55:00;;;;;;;0.15;0.15;;;;;;;0.88;78.50;100811.25;15735622;28;20090;-50
2023/12/08 12:02:36;;;;;;;0.10;0.10;;;;;;;0.96;78.83;100795.50;15718434;28;20131;-50
2023/12/08 12:10:11;;;;;;;0.22;0.22;;;;;;;0.89;79.19;100798.91;15735898;28;20049;-49
2023/12/08 12:17:47;;;;;;;2.38;1.17;;;;;;;0.97;79.29;100802.47;15735255;28;20475;-51
2023/12/08 12:25:21;;;;;;;0.00;0.00;;;;;;;1.06;78.29;100794.63;15726944;28;20498;-52
2023/12/08 12:32:56;;;;;;;1.13;1.10;;;;;;;1.19;77.37;100801.25;15716765;28;20072;-50
2023/12/08 12:40:30;;;;;;;0.00;0.00;;;;;;;1.12;78.41;100792.25;15717420;28;20098;-49
2023/12/08 12:48:07;;;;;;;0.55;0.55;;;;;;;0.98;78.36;100777.72;15735181;28;20123;-51
2023/12/08 12:55:40;;;;;;;1.17;0.98;;;;;;;1.06;79.17;100769.03;15742119;28;20044;-49
2023/12/08 13:03:18;;;;;;;0.75;0.75;;;;;;;1.05;78.61;100756.81;15745961;28;20135;-51
2023/12/08 13:10:53;;;;;;;0.00;0.00;;;;;;;1.29;77.51;100753.59;15727088;28;20167;-50
2023/12/08 13:18:27;;;;;;;0.73;0.70;;;;;;;1.26;77.55;100761.84;15745642;28;20582;-51
2023/12/08 13:26:01;;;;;;;1.00;0.50;;;;;;;1.08;78.39;100761.81;15726568;28;20037;-55
2023/12/08 13:33:36;;;;;;;4.90;2.15;;;;;;;1.29;78.40;100758.88;15728219;28;20034;-52
2023/12/08 13:41:09;;;;;;;1.10;1.10;;;;;;;1.17;79.03;100760.91;15726840;28;20052;-51
2023/12/08 13:48:44;;;;;;;1.95;1.75;;;;;;;1.30;78.26;100754.41;15743965;28;20407;-51
2023/12/08 13:56:17;;;;;;;0.90;0.55;;;;;;;1.28;78.34;100760.69;15742372;28;20033;-50
2023/12/08 14:03:52;;;;;;;0.30;0.30;;;;;;;1.23;78.42;100757.66;15740186;28;20083;-48
2023/12/08 14:11:26;;;;;;;0.10;0.10;;;;;;;1.08;79.21;100743.31;15756429;22;20437;-50
2023/12/08 14:19:01;;;;;;;;;;;;;;;1.19;78.55;100750.19;15742766;28;20040;-50
2023/12/08 14:26:35;;;;;;;1.25;0.90;;;;;;;1.13;78.64;100756.91;15741916;28;19931;-52
2023/12/08 14:34:11;;;;;;;0.20;0.20;;;;;;;1.28;78.60;100747.47;15725084;28;20067;-52
2023/12/08 14:41:44;;;;;;;0.10;0.10;;;;;;;1.04;79.62;100734.00;15736922;28;20094;-55
2023/12/08 14:49:19;;;;;;;1.70;1.60;;;;;;;0.93;79.96;100735.06;15740609;28;20041;-49
2023/12/08 14:56:54;;;;;;;0.82;0.82;;;;;;;1.10;79.59;100741.31;15712015;28;20553;-50
2023/12/08 15:04:28;;;;;;;1.35;1.13;;;;;;;0.93;79.93;100740.34;15741652;28;20052;-53
2023/12/08 15:12:01;;;;;;;8.88;2.03;;;;;;;1.24;79.02;100753.22;15731006;28;20051;-49
2023/12/08 15:19:38;;;;;;;0.30;0.30;;;;;;;1.19;79.96;100756.28;15737371;28;20413;-50
2023/12/08 15:27:11;;;;;;;0.08;0.08;;;;;;;1.17;79.14;100747.69;15737222;28;20075;-51
2023/12/08 15:34:46;;;;;;;;;;;;;;;1.17;79.99;100753.00;15737141;28;20076;-49
2023/12/08 15:42:19;;;;;;;0.10;0.10;;;;;;;1.14;79.74;100758.56;15736107;28;19921;-51
2023/12/08 15:49:55;;;;;;;1.17;0.60;;;;;;;1.22;80.01;100755.19;15735571;28;20587;-51
2023/12/08 15:57:29;;;;;;;0.75;0.65;;;;;;;1.52;79.06;100768.03;15737336;28;20416;-52
2023/12/08 16:05:05;;;;;;;0.10;0.10;;;;;;;1.16;80.90;100747.81;15737834;28;20037;-51
2023/12/08 16:12:39;;;;;;;3.22;2.08;;;;;;;1.63;78.95;100750.25;15718542;28;20049;-51
2023/12/08 16:20:15;;;;;;;0.80;0.80;;;;;;;1.56;79.71;100752.69;15718247;28;20036;-50
2023/12/08 16:27:52;;;;;;;0.45;0.45;;;;;;;1.92;79.02;100745.56;15739636;28;20379;-49
2023/12/08 16:35:26;;;;;;;1.17;1.17;;;;;;;2.04;77.69;100749.59;15729870;28;20398;-49
2023/12/08 16:43:00;;;;;;;0.95;0.93;;;;;;;1.72;79.17;100742.25;15729580;28;20069;-53
2023/12/08 16:50:35;;;;;;;0.10;0.10;;;;;;;1.29;80.31;100750.94;15747830;28;20068;-49
2023/12/08 16:58:11;;;;;;;0.90;0.90;;;;;;;1.14;81.28;100750.63;15745769;28;20130;-51
2023/12/08 17:05:45;;;;;;;;;;;;;;;1.19;81.89;100772.16;15746815;28;20261;-51
2023/12/08 17:13:19;;;;;;;2.03;1.13;;;;;;;1.35;80.62;100775.94;15728414;28;20402;-48
2023/12/08 17:20:53;;;;;;;1.25;0.98;;;;;;;1.05;82.18;100759.44;15743318;28;20456;-50
2023/12/08 17:28:27;;;;;;;0.20;0.20;;;;;;;1.41;80.94;100757.69;15738066;28;20383;-52
2023/12/08 17:36:03;;;;;;;1.30;1.30;;;;;;;1.35;81.00;100752.16;15746441;28;20117;-48
2023/12/08 17:43:36;;;;;;;0.75;0.57;;;;;;;1.25;81.11;100763.63;15747582;28;20044;-51
2023/12/08 17:51:11;;;;;;;0.10;0.10;;;;;;;1.05;82.05;100766.53;15745558;28;20494;-52
2023/12/08 17:58:46;;;;;;;1.38;1.38;;;;;;;1.21;82.40;100772.88;15744047;28;20048;-50
2023/12/08 18:06:21;;;;;;;0.10;0.10;;;;;;;1.49;80.74;100776.28;15743551;28;20040;-52
2023/12/08 18:13:54;;;;;;;0.63;0.63;;;;;;;1.63;80.80;100776.72;15725428;28;20068;-49
2023/12/08 18:21:30;;;;;;;0.10;0.10;;;;;;;1.27;81.22;100774.06;15743298;28;20138;-49
2023/12/08 18:29:03;;;;;;;0.35;0.35;;;;;;;1.20;83.00;100787.03;15726093;28;20147;-51
2023/12/08 18:36:38;;;;;;;0.25;0.25;;;;;;;1.10;83.33;100801.28;15743381;28;20070;-50
2023/12/08 18:44:12;;;;;;;0.40;0.40;;;;;;;1.14;82.61;100792.94;15744315;28;20569;-49
2023/12/08 18:51:47;;;;;;;;;;;;;;;1.17;82.77;100792.63;15740624;28;20321;-50
2023/12/08 18:59:21;;;;;;;0.15;0.15;;;;;;;0.87;83.79;100799.03;15740136;28;20337;-49
2023/12/08 19:06:56;;;;;;;0.95;0.95;;;;;;;1.20;83.00;100804.72;15737986;28;20127;-50
2023/12/08 19:14:29;;;;;;;0.32;0.32;;;;;;;1.55;82.07;100811.88;15738079;28;20050;-50
2023/12/08 19:22:06;;;;;;;0.55;0.50;;;;;;;1.50;81.24;100803.56;15737296;28;20053;-50
2023/12/08 19:29:40;;;;;;;0.95;0.95;;;;;;;1.43;80.98;100794.56;15737011;28;20518;-50
2023/12/08 19:37:15;;;;;;;0.30;0.30;;;;;;;1.40;81.93;100808.94;15720066;28;20064;-49
2023/12/08 19:44:50;;;;;;;0.10;0.10;;;;;;;1.49;81.31;100809.81;15736908;28;20029;-50
2023/12/08 19:52:24;;;;;;;0.60;0.55;;;;;;;1.28;82.42;100799.53;15719097;28;20040;-49
2023/12/08 19:59:58;;;;;;;0.35;0.35;;;;;;;1.25;82.05;100815.69;15736288;28;20040;-49
2023/12/08 20:07:33;;;;;;;0.30;0.30;;;;;;;1.48;82.16;100809.00;15734675;28;20039;-47
2023/12/08 20:15:08;;;;;;;0.30;0.30;;;;;;;1.35;81.69;100810.31;15737752;22;20545;-48
2023/12/08 20:22:43;;;;;;;1.45;1.35;;;;;;;1.59;81.01;100813.25;15715181;28;20388;-52
2023/12/08 20:30:19;;;;;;;6.30;1.85;;;;;;;1.64;81.34;100826.84;15717384;28;20036;-49
2023/12/08 20:37:54;;;;;;;0.20;0.20;;;;;;;1.46;81.19;100818.91;15700804;28;20029;-50
2023/12/08 20:45:27;;;;;;;0.43;0.43;;;;;;;1.47;81.73;100825.03;15727228;28;20047;-49
2023/12/08 20:53:02;;;;;;;2.97;2.72;;;;;;;1.31;82.10;100828.31;15733868;28;20048;-47
2023/12/08 21:00:36;;;;;;;0.55;0.55;;;;;;;1.56;81.51;100836.53;15733151;28;20106;-50
2023/12/08 21:08:13;;;;;;;2.85;2.63;;;;;;;1.55;81.09;100832.22;15732672;28;20549;-47
2023/12/08 21:15:46;;;;;;;0.35;0.20;;;;;;;1.63;81.35;100845.50;15739754;28;20161;-52
2023/12/08 21:23:21;;;;;;;;;;;;;;;1.64;81.23;100845.38;15745124;28;20560;-48
2023/12/08 21:30:55;;;;;;;0.43;0.43;;;;;;;1.84;81.13;100851.34;15743554;28;19928;-50
2023/12/08 21:38:31;;;;;;;1.20;1.10;;;;;;;1.85;80.96;100836.31;15723731;28;20473;-48
2023/12/08 21:46:06;;;;;;;0.90;0.73;;;;;;;1.95;80.42;100840.53;15740291;28;20044;-46
2023/12/08 21:53:42;;;;;;;0.55;0.55;;;;;;;1.32;82.57;100837.91;15739085;28;20098;-48
2023/12/08 22:01:15;;;;;;;0.57;0.57;;;;;;;1.38;82.90;100839.13;15719955;28;20052;-48
2023/12/08 22:08:50;;;;;;;0.10;0.10;;;;;;;1.65;81.66;100854.16;15720434;28;20040;-46
2023/12/08 22:16:24;;;;;;;0.10;0.08;;;;;;;1.46;82.58;100848.00;15703253;28;20406;-47
2023/12/08 22:23:59;;;;;;;2.10;0.65;;;;;;;1.87;80.83;100871.41;15735865;28;20101;-48
2023/12/08 22:31:33;;;;;;;0.65;0.65;;;;;;;1.52;82.80;100863.25;15736811;28;20157;-49
2023/12/08 22:39:07;;;;;;;0.10;0.10;;;;;;;1.62;82.89;100871.13;15736568;28;20544;-48
2023/12/08 22:46:42;;;;;;;0.10;0.10;;;;;;;1.57;82.08;100865.47;15736149;28;20062;-50
2023/12/08 22:54:16;;;;;;;;;;;;;;;1.36;84.08;100875.47;15734196;28;20097;-49
2023/12/08 23:01:49;;;;;;;0.00;0.00;;;;;;;1.61;82.86;100888.00;15734901;28;20466;-48
2023/12/08 23:09:24;;;;;;;1.30;0.47;;;;;;;2.11;80.82;100886.69;15737019;28;20421;-48
2023/12/08 23:17:00;;;;;;;1.13;0.55;;;;;;;2.04;81.28;100871.38;15735164;28;20043;-47
2023/12/08 23:24:35;;;;;;;3.15;2.40;;;;;;;1.76;82.56;100872.44;15735751;28;20055;-49
2023/12/08 23:32:09;;;;;;;0.65;0.65;;;;;;;2.13;81.40;100876.75;15735925;28;20531;-50
2023/12/08 23:39:45;;;;;;;1.52;1.40;;;;;;;1.96;80.75;100881.09;15734848;28;20032;-50
2023/12/08 23:47:21;;;;;;;1.48;0.52;;;;;;;1.93;82.40;100873.44;15735908;28;20082;-50
2023/12/08 23:54:55;;;;;;;0.20;0.20;;;;;;;2.38;80.30;100868.06;15716473;28;20536;-49
